Time;durP1;ratioP1;P1;durP2;ratioP2;P2;SDS_P1;SDS_P2;PMS_P1;PMS_P2;Temp;Humidity;BMP_temperature;BMP_pressure;BME280_temperature;BME280_humidity;BME280_pressure;Samples;Min_cycle;Max_cycle;Signal;HPM_P1;HPM_P2
2022/08/08 00:02:10;;;;;;;;;;;23.80;66.70;;;23.27;61.84;96439.47;4155818;34;20026;-85
2022/08/08 00:04:45;;;;;;;;;;;23.80;66.60;;;23.27;61.23;96428.28;4179231;34;19903;-85
2022/08/08 00:07:17;;;;;;;;;;;23.80;66.30;;;23.27;61.29;96431.09;4179237;34;20172;-84
2022/08/08 00:09:54;;;;;;;;;;;23.80;66.30;;;23.26;61.17;96426.66;4179220;34;20084;-85
2022/08/08 00:12:30;;;;;;;;;;;23.80;66.30;;;23.26;61.10;96428.63;4155480;34;19922;-84
2022/08/08 00:15:04;;;;;;;;;;;23.80;66.10;;;23.25;61.37;96435.38;4156271;34;19911;-85
2022/08/08 00:17:41;;;;;;;;;;;23.80;66.40;;;23.25;61.08;96435.38;4156164;34;19903;-84
2022/08/08 00:20:10;;;;;;;;;;;23.80;66.30;;;23.24;60.96;96434.56;4179062;34;19904;-84
2022/08/08 00:22:42;;;;;;;;;;;23.80;66.30;;;23.24;61.02;96428.16;4178371;34;19903;-84
2022/08/08 00:25:15;;;;;;;;;;;23.80;66.20;;;23.24;60.63;96426.19;4156059;34;19903;-84
2022/08/08 00:27:43;;;;;;;;;;;23.80;65.90;;;23.23;60.78;96435.72;4179012;34;20032;-84
2022/08/08 00:30:14;;;;;;;;;;;23.80;65.90;;;23.23;61.12;96441.31;4178927;34;20012;-84
2022/08/08 00:32:46;;;;;;;;;;;23.80;65.90;;;23.22;60.89;96431.31;4178172;34;19904;-85
2022/08/08 00:35:41;;;;;;;;;;;23.80;65.70;;;23.23;60.49;96435.72;4178918;34;19904;-85
2022/08/08 00:38:36;;;;;;;;;;;23.80;65.70;;;23.22;60.90;96428.50;4178832;34;19903;-85
2022/08/08 00:41:47;;;;;;;;;;;23.70;65.80;;;23.23;60.72;96424.56;4179747;34;20130;-85
2022/08/08 00:45:13;;;;;;;;;;;23.80;65.90;;;23.23;61.10;96421.75;4150776;34;19911;-84
2022/08/08 00:48:22;;;;;;;;;;;23.80;66.00;;;23.23;60.88;96420.97;4144786;34;19903;-84
2022/08/08 00:51:39;;;;;;;;;;;23.80;66.20;;;23.23;61.21;96420.97;4141361;34;20131;-85
2022/08/08 00:54:59;;;;;;;;;;;23.80;66.20;;;23.23;61.02;96415.38;4128282;34;20305;-85
2022/08/08 00:58:30;;;;;;;;;;;23.80;66.10;;;23.22;61.38;96413.75;4163960;34;19903;-84
2022/08/08 01:01:10;;;;;;;;;;;23.80;66.20;;;23.23;60.94;96418.16;4155676;34;19910;-84
2022/08/08 01:04:28;;;;;;;;;;;23.80;66.10;;;23.22;61.12;96420.13;4155106;34;19903;-84
2022/08/08 01:07:50;;;;;;;;;;;23.80;66.10;;;23.23;61.18;96420.97;4154069;34;19903;-85
2022/08/08 01:11:03;;;;;;;;;;;23.80;66.00;;;23.22;60.96;96417.34;4155064;34;20074;-85
2022/08/08 01:14:14;;;;;;;;;;;23.80;66.00;;;23.21;61.06;96417.69;4154877;34;19949;-84
2022/08/08 01:17:43;;;;;;;;;;;23.80;66.00;;;23.20;60.89;96422.44;4225168;33;20229;-84
2022/08/08 01:20:43;;;;;;;;;;;23.80;66.00;;;23.20;61.12;96428.03;4094739;34;20000;-84
2022/08/08 01:24:11;;;;;;;;;;;23.70;66.00;;;23.20;60.69;96421.66;4150969;34;20142;-84
2022/08/08 01:27:46;;;;;;;;;;;23.70;65.90;;;23.19;60.69;96412.41;4134194;34;19903;-85
2022/08/08 01:31:19;;;;;;;;;;;23.70;66.00;;;23.19;61.00;96412.41;4151690;34;20080;-86
2022/08/08 01:34:03;;;;;;;;;;;23.70;65.90;;;23.19;61.01;96418.00;4138905;34;20245;-84
2022/08/08 01:37:11;;;;;;;;;;;23.70;65.80;;;23.20;60.98;96422.44;4150639;34;19904;-85
2022/08/08 01:40:05;;;;;;;;;;;23.70;66.00;;;23.19;60.99;96420.78;4128153;34;19927;-84
2022/08/08 01:42:39;;;;;;;;;;;23.80;65.80;;;23.18;60.61;96424.72;4164950;34;19999;-85
2022/08/08 01:45:25;;;;;;;;;;;23.70;65.90;;;23.19;60.84;96431.16;4178013;34;20616;-85
2022/08/08 01:48:05;;;;;;;;;;;23.70;65.90;;;23.18;60.91;96423.94;4177966;34;19903;-84
2022/08/08 01:51:01;;;;;;;;;;;23.70;66.00;;;23.18;60.81;96427.53;4177884;34;19926;-85
2022/08/08 01:53:42;;;;;;;;;;;23.70;65.90;;;23.18;60.69;96430.31;4152186;34;19903;-85
2022/08/08 01:56:22;;;;;;;;;;;23.70;65.90;;;23.17;60.78;96428.72;4155021;34;20277;-85
2022/08/08 01:59:00;;;;;;;;;;;23.70;66.70;;;23.18;60.74;96426.72;4154903;34;20319;-85
2022/08/08 02:01:50;;;;;;;;;;;23.70;65.80;;;23.17;61.02;96430.69;4154912;34;20047;-85
2022/08/08 02:04:24;;;;;;;;;;;23.70;66.00;;;23.17;61.11;96439.88;4156606;34;20025;-85
2022/08/08 02:07:00;;;;;;;;;;;23.70;66.00;;;23.17;61.10;96427.88;4127661;34;20010;-86
2022/08/08 02:09:50;;;;;;;;;;;23.70;66.00;;;23.17;60.76;96433.47;4150085;34;20344;-84
2022/08/08 02:12:25;;;;;;;;;;;23.70;66.00;;;23.17;60.79;96434.31;4149775;34;19919;-84
2022/08/08 02:15:01;;;;;;;;;;;23.70;65.90;;;23.17;60.61;96439.88;4150056;34;19904;-83
2022/08/08 02:17:43;;;;;;;;;;;23.70;65.90;;;23.16;60.85;96435.47;4150200;34;20039;-84
2022/08/08 02:20:25;;;;;;;;;;;23.70;65.90;;;23.16;60.76;96438.25;4127635;34;20027;-86
2022/08/08 02:23:00;;;;;;;;;;;23.70;65.90;;;23.15;60.89;96436.63;4127331;34;20147;-85
2022/08/08 02:25:33;;;;;;;;;;;23.70;65.60;;;23.15;60.38;96436.63;4127640;34;19903;-85
2022/08/08 02:28:05;;;;;;;;;;;23.70;65.70;;;23.15;60.64;96439.41;4151396;34;19904;-85
2022/08/08 02:30:43;;;;;;;;;;;23.70;65.80;;;23.15;60.47;96436.63;4177604;34;19926;-85
2022/08/08 02:33:29;;;;;;;;;;;23.70;65.80;;;23.15;60.63;96436.63;4177185;34;19910;-86
2022/08/08 02:36:11;;;;;;;;;;;23.70;65.80;;;23.14;60.69;96437.78;4154692;34;19910;-85
2022/08/08 02:39:02;;;;;;;;;;;23.70;65.80;;;23.15;60.60;96442.22;4177605;34;20133;-85
2022/08/08 02:42:14;;;;;;;;;;;23.70;65.60;;;23.13;60.47;96436.16;4154612;34;19905;-85
2022/08/08 02:45:16;;;;;;;;;;;23.70;65.50;;;23.14;60.87;96440.56;4177746;33;20116;-85
2022/08/08 02:48:26;;;;;;;;;;;23.70;65.70;;;23.13;60.74;96442.53;4154610;34;19914;-85
2022/08/08 02:51:52;;;;;;;;;;;23.70;65.70;;;23.14;60.48;96437.78;4154473;34;20105;-85
2022/08/08 02:54:50;;;;;;;;;;;23.70;65.60;;;23.13;60.81;96444.53;4118274;34;19979;-84
2022/08/08 02:58:21;;;;;;;;;;;23.70;65.80;;;23.12;60.72;96451.28;4153665;34;19982;-84
2022/08/08 03:01:38;;;;;;;;;;;23.70;65.70;;;23.12;60.86;96454.88;4175804;34;20065;-85
2022/08/08 03:05:21;;;;;;;;;;;23.70;65.60;;;23.12;60.83;96459.66;4134226;34;20358;-84
2022/08/08 03:08:49;;;;;;;;;;;23.70;65.60;;;23.10;60.49;96456.38;4025433;34;20509;-84
2022/08/08 03:11:49;;;;;;;;;;;23.70;65.60;;;23.11;60.76;96458.03;4058443;34;19911;-84
2022/08/08 03:14:57;;;;;;;;;;;23.70;65.60;;;23.11;60.43;96463.59;4149260;34;19944;-84
2022/08/08 03:17:33;;;;;;;;;;;23.70;65.70;;;23.11;60.47;96466.41;4165966;34;19910;-84
2022/08/08 03:20:04;;;;;;;;;;;23.70;65.60;;;23.12;60.66;96470.81;4149509;34;19911;-84
2022/08/08 03:22:44;;;;;;;;;;;23.70;65.70;;;23.11;60.39;96463.59;4149105;34;19903;-85
2022/08/08 03:25:14;;;;;;;;;;;23.70;65.60;;;23.12;60.47;96465.25;4149635;34;20014;-84
2022/08/08 03:27:50;;;;;;;;;;;23.70;65.70;;;23.12;60.15;96462.44;4149778;34;19903;-85
2022/08/08 03:30:19;;;;;;;;;;;23.70;65.60;;;23.11;60.86;96458.81;4149589;34;19991;-85
2022/08/08 03:35:38;;;;;;;;;;;23.70;65.60;;;23.13;60.50;96475.25;4149393;34;20098;-85
2022/08/08 03:38:09;;;;;;;;;;;23.70;65.50;;;23.13;60.69;96466.88;4149614;34;20096;-85
2022/08/08 03:40:38;;;;;;;;;;;23.70;65.60;;;23.13;60.74;96473.25;4126687;34;19911;-85
2022/08/08 03:43:09;;;;;;;;;;;23.70;65.60;;;23.15;60.61;96470.13;4148880;34;19903;-85
2022/08/08 03:45:40;;;;;;;;;;;23.70;65.60;;;23.16;60.82;96473.72;4126838;34;19903;-85
2022/08/08 03:48:10;;;;;;;;;;;23.70;65.60;;;23.16;60.80;96474.56;4150620;34;20372;-84
2022/08/08 03:50:47;;;;;;;;;;;23.70;65.70;;;23.17;60.58;96470.63;4126665;34;20056;-84
2022/08/08 03:53:20;;;;;;;;;;;23.70;65.90;;;23.19;60.72;96476.63;4148749;34;19904;-85
2022/08/08 03:55:50;;;;;;;;;;;23.70;65.90;;;23.19;60.77;96471.06;4149375;34;19904;-85
2022/08/08 03:58:21;;;;;;;;;;;23.70;65.80;;;23.21;60.97;96476.34;4126827;34;19904;-85
2022/08/08 04:00:56;;;;;;;;;;;23.80;65.90;;;23.22;60.69;96486.34;4149115;34;19903;-85
2022/08/08 04:03:34;;;;;;;;;;;23.80;65.80;;;23.23;61.11;96482.41;4171752;34;19927;-85
2022/08/08 04:06:05;;;;;;;;;;;23.80;65.90;;;23.23;60.95;96482.41;4149139;34;20008;-84
2022/08/08 04:08:37;;;;;;;;;;;23.80;65.80;;;23.24;60.71;96484.84;4126859;34;19903;-85
2022/08/08 04:11:11;;;;;;;;;;;23.80;65.80;;;23.26;61.12;96482.53;4149134;34;20105;-84
2022/08/08 04:13:40;;;;;;;;;;;23.80;66.00;;;23.27;61.15;96480.53;4148678;34;20123;-85
2022/08/08 04:16:10;;;;;;;;;;;23.80;66.00;;;23.29;60.87;96481.00;4149069;34;20022;-85
2022/08/08 04:18:43;;;;;;;;;;;23.80;66.00;;;23.31;60.89;96483.44;4149197;34;19910;-85
2022/08/08 04:21:12;;;;;;;;;;;23.90;67.10;;;23.33;61.50;96481.13;4172021;34;20349;-84
2022/08/08 04:23:43;;;;;;;;;;;23.90;66.20;;;23.34;61.36;96479.94;4148704;34;19910;-85
2022/08/08 04:26:12;;;;;;;;;;;23.90;66.10;;;23.36;60.87;96480.44;4171903;34;20107;-85
2022/08/08 04:28:42;;;;;;;;;;;23.90;66.10;;;23.37;61.23;96487.66;4149114;34;20127;-85
2022/08/08 04:31:12;;;;;;;;;;;23.90;66.00;;;23.39;61.25;96482.53;4126517;34;19903;-85
2022/08/08 04:33:41;;;;;;;;;;;23.90;66.00;;;23.42;61.22;96484.63;4148417;34;20017;-85
2022/08/08 04:36:09;;;;;;;;;;;24.00;66.20;;;23.43;61.24;96480.69;4149830;34;19903;-85
2022/08/08 04:38:38;;;;;;;;;;;24.00;66.30;;;23.44;61.16;96483.13;4126500;34;20232;-85
2022/08/08 04:41:09;;;;;;;;;;;24.00;66.20;;;23.45;61.37;96478.34;4149083;34;20125;-85
2022/08/08 04:43:38;;;;;;;;;;;24.00;66.20;;;23.50;61.25;96486.50;4171442;34;19921;-85
2022/08/08 04:46:06;;;;;;;;;;;24.00;66.20;;;23.52;61.20;96483.34;4152055;34;19903;-84
2022/08/08 04:48:35;;;;;;;;;;;24.10;66.20;;;23.54;61.25;96487.44;4151383;34;20154;-85
2022/08/08 04:51:04;;;;;;;;;;;24.10;66.00;;;23.55;60.89;96483.47;4128594;34;19904;-84
2022/08/08 04:53:35;;;;;;;;;;;24.10;65.90;;;23.57;60.94;96486.72;4150748;34;20024;-84
2022/08/08 04:56:04;;;;;;;;;;;24.10;65.60;;;23.58;60.45;96484.75;4151175;34;19904;-85
2022/08/08 04:58:37;;;;;;;;;;;24.10;65.50;;;23.60;60.57;96483.22;4128557;34;19911;-85
2022/08/08 05:01:06;;;;;;;;;;;24.10;65.20;;;23.61;59.94;96481.28;4128457;34;20112;-85
2022/08/08 05:03:35;;;;;;;;;;;24.20;64.90;;;23.63;60.79;96483.72;4150614;34;20417;-85
2022/08/08 05:06:05;;;;;;;;;;;24.20;65.40;;;23.63;60.56;96489.28;4151081;34;19903;-85
2022/08/08 05:08:34;;;;;;;;;;;24.20;65.40;;;23.64;60.40;96494.53;4173927;34;19903;-85
2022/08/08 05:11:02;;;;;;;;;;;24.20;65.40;;;23.65;60.47;96492.56;4151184;34;19962;-85
2022/08/08 05:13:31;;;;;;;;;;;24.20;65.00;;;23.66;59.75;96485.81;4173266;34;20466;-85
2022/08/08 05:16:01;;;;;;;;;;;24.20;64.70;;;23.67;60.44;96496.63;4128432;34;19944;-85
2022/08/08 05:18:29;;;;;;;;;;;24.20;65.10;;;23.68;60.13;96500.25;4173839;34;19911;-85
2022/08/08 05:20:58;;;;;;;;;;;24.20;64.80;;;23.68;60.31;96498.25;4128374;34;19910;-85
2022/08/08 05:23:27;;;;;;;;;;;24.20;65.00;;;23.70;60.17;96507.13;4151235;34;19910;-85
2022/08/08 05:25:56;;;;;;;;;;;24.30;64.80;;;23.71;59.70;96502.31;4128137;34;19903;-85
2022/08/08 05:28:24;;;;;;;;;;;24.30;64.70;;;23.73;59.57;96500.00;4128136;34;19911;-85
2022/08/08 05:30:53;;;;;;;;;;;24.30;64.70;;;23.75;59.97;96500.47;4128296;34;19911;-85
2022/08/08 05:33:23;;;;;;;;;;;24.30;64.80;;;23.79;59.88;96498.63;4150108;34;19903;-85
2022/08/08 05:35:53;;;;;;;;;;;24.30;65.00;;;23.82;60.33;96509.06;4150259;34;19904;-85
2022/08/08 05:38:22;;;;;;;;;;;24.40;64.90;;;23.87;60.05;96505.25;4128066;34;19903;-85
2022/08/08 05:40:54;;;;;;;;;;;24.40;65.00;;;23.92;59.90;96501.41;4150700;34;20022;-85
2022/08/08 05:43:25;;;;;;;;;;;24.50;64.90;;;23.97;60.10;96493.63;4127553;34;20443;-85
2022/08/08 05:45:57;;;;;;;;;;;24.50;64.80;;;24.02;59.61;96506.53;4127915;34;19951;-85
2022/08/08 05:48:27;;;;;;;;;;;24.60;64.70;;;24.07;59.55;96505.50;4127974;34;20307;-85
2022/08/08 05:50:56;;;;;;;;;;;24.60;64.50;;;24.09;59.45;96506.75;4128029;34;19904;-85
2022/08/08 05:53:25;;;;;;;;;;;24.60;64.20;;;24.10;59.60;96513.97;4151019;34;20147;-85
2022/08/08 05:55:57;;;;;;;;;;;24.60;64.10;;;24.10;59.43;96508.38;4150294;34;20219;-85
2022/08/08 05:58:28;;;;;;;;;;;24.70;64.20;;;24.13;59.24;96507.69;4173412;34;20230;-85
2022/08/08 06:00:58;;;;;;;;;;;24.70;64.10;;;24.16;59.28;96517.34;4127888;34;20014;-85
2022/08/08 06:03:29;;;;;;;;;;;24.70;64.10;;;24.18;59.42;96515.84;4149971;34;20398;-84
2022/08/08 06:06:05;;;;;;;;;;;24.70;64.00;;;24.18;59.19;96521.44;4173306;34;20121;-84
2022/08/08 06:08:37;;;;;;;;;;;24.70;63.90;;;24.21;59.15;96514.31;4150399;34;20126;-85
2022/08/08 06:11:09;;;;;;;;;;;24.80;63.80;;;24.24;58.96;96518.41;4151442;34;19915;-85
2022/08/08 06:13:38;;;;;;;;;;;24.80;63.80;;;24.25;58.94;96526.44;4149768;34;20029;-85
2022/08/08 06:16:08;;;;;;;;;;;24.80;63.60;;;24.27;58.91;96517.69;4150252;34;19903;-85
2022/08/08 06:18:57;;;;;;;;;;;24.80;63.60;;;24.26;59.21;96514.09;4173203;34;20069;-84
2022/08/08 06:21:28;;;;;;;;;;;24.80;63.50;;;24.23;59.09;96523.19;4150434;34;19906;-85
2022/08/08 06:23:56;;;;;;;;;;;24.80;63.60;;;24.24;59.10;96519.22;4149622;34;19910;-85
2022/08/08 06:26:25;;;;;;;;;;;24.80;63.70;;;24.23;59.05;96525.16;4150134;34;20261;-85
2022/08/08 06:29:04;;;;;;;;;;;24.80;63.60;;;24.19;59.23;96525.06;4150115;34;20035;-84
2022/08/08 06:31:35;;;;;;;;;;;24.80;63.70;;;24.16;59.37;96529.38;4150187;34;19981;-84
2022/08/08 06:34:08;;;;;;;;;;;24.70;63.80;;;24.13;59.40;96523.69;4149463;34;20138;-85
2022/08/08 06:36:38;;;;;;;;;;;24.70;64.00;;;24.11;59.46;96529.59;4127647;34;20163;-85
2022/08/08 06:39:09;;;;;;;;;;;24.70;64.20;;;24.12;59.53;96528.44;4151020;34;19913;-85
2022/08/08 06:41:42;;;;;;;;;;;24.70;64.20;;;24.12;59.49;96528.44;4154353;34;19926;-84
2022/08/08 06:44:12;;;;;;;;;;;24.70;64.20;;;24.15;59.22;96522.16;4177067;34;20243;-84
2022/08/08 06:46:41;;;;;;;;;;;24.70;64.30;;;24.20;59.27;96527.47;4154659;34;20109;-85
2022/08/08 06:49:11;;;;;;;;;;;24.70;64.20;;;24.23;59.36;96522.34;4177455;34;19903;-85
2022/08/08 06:51:40;;;;;;;;;;;24.70;64.00;;;24.26;58.98;96527.25;4154675;34;20099;-85
2022/08/08 06:54:09;;;;;;;;;;;24.80;63.90;;;24.30;59.08;96528.19;4153831;34;20093;-85
2022/08/08 06:56:38;;;;;;;;;;;24.80;63.70;;;24.30;59.03;96528.19;4177375;34;20164;-85
2022/08/08 06:59:09;;;;;;;;;;;24.80;63.70;;;24.32;58.84;96531.44;4177295;34;19904;-85
2022/08/08 07:01:44;;;;;;;;;;;24.80;63.70;;;24.31;58.66;96529.81;4154346;34;20359;-85
2022/08/08 07:04:20;;;;;;;;;;;24.80;63.60;;;24.30;58.97;96533.78;4153838;34;20227;-85
2022/08/08 07:06:54;;;;;;;;;;;24.80;63.60;;;24.28;58.96;96524.91;4176705;34;20140;-85
2022/08/08 07:09:27;;;;;;;;;;;24.80;63.70;;;24.27;59.15;96531.69;4156475;34;19915;-86
2022/08/08 07:11:55;;;;;;;;;;;24.80;63.80;;;24.28;58.99;96533.31;4127087;34;20038;-85
2022/08/08 07:14:27;;;;;;;;;;;24.80;63.80;;;24.30;58.94;96529.00;4149143;34;20068;-85
2022/08/08 07:17:03;;;;;;;;;;;24.80;63.80;;;24.28;58.94;96525.72;4126994;34;19903;-84
2022/08/08 07:19:40;;;;;;;;;;;24.80;63.90;;;24.27;59.12;96538.09;4127072;34;20052;-85
2022/08/08 07:22:09;;;;;;;;;;;24.80;63.90;;;24.24;59.40;96529.59;4149170;34;20125;-85
2022/08/08 07:24:44;;;;;;;;;;;24.80;64.00;;;24.23;59.55;96530.75;4149658;34;20035;-85
2022/08/08 07:27:15;;;;;;;;;;;24.80;64.10;;;24.24;59.35;96533.22;4127001;34;19904;-85
2022/08/08 07:29:43;;;;;;;;;;;24.70;64.20;;;24.30;59.37;96530.97;4126889;34;19929;-85
2022/08/08 07:32:12;;;;;;;;;;;24.80;64.20;;;24.34;59.07;96532.72;4148937;34;20380;-86
2022/08/08 07:34:43;;;;;;;;;;;24.80;64.00;;;24.40;59.04;96535.28;4149462;34;20347;-85
2022/08/08 07:37:14;;;;;;;;;;;24.80;64.00;;;24.42;59.03;96533.75;4126968;34;19911;-85
2022/08/08 07:39:45;;;;;;;;;;;24.90;64.00;;;24.45;59.00;96529.44;4126933;34;20246;-85
2022/08/08 07:42:16;;;;;;;;;;;25.00;63.80;;;24.49;58.69;96530.34;4126297;34;19911;-85
2022/08/08 07:44:45;;;;;;;;;;;25.00;63.80;;;24.50;58.76;96538.38;4126830;34;20009;-85
2022/08/08 07:47:16;;;;;;;;;;;25.00;63.70;;;24.53;58.89;96539.66;4149435;34;20257;-85
2022/08/08 07:49:48;;;;;;;;;;;25.00;63.60;;;24.55;58.67;96536.53;4149507;34;20298;-86
2022/08/08 07:52:16;;;;;;;;;;;25.00;63.60;;;24.55;58.67;96540.13;4148928;34;19904;-85
2022/08/08 07:54:51;;;;;;;;;;;25.10;63.50;;;24.57;58.60;96542.59;4142594;34;19910;-86
2022/08/08 07:57:26;;;;;;;;;;;25.10;63.40;;;24.58;58.72;96527.44;4153907;34;20090;-86
2022/08/08 08:00:03;;;;;;;;;;;25.10;63.50;;;24.59;58.68;96540.25;4158924;34;20135;-86
2022/08/08 08:02:39;;;;;;;;;;;25.10;63.30;;;24.60;58.30;96533.47;4149796;34;19911;-85
2022/08/08 08:05:19;;;;;;;;;;;25.10;63.30;;;24.60;58.68;96530.66;4126636;34;20113;-85
2022/08/08 08:07:49;;;;;;;;;;;25.10;63.30;;;24.61;58.53;96532.28;4126782;34;20139;-85
2022/08/08 08:10:18;;;;;;;;;;;25.10;63.30;;;24.61;58.72;96532.28;4149258;34;20103;-85
2022/08/08 08:12:52;;;;;;;;;;;25.10;63.30;;;24.61;58.87;96529.50;4126191;34;20378;-86
2022/08/08 08:15:24;;;;;;;;;;;25.10;63.30;;;24.60;58.72;96531.50;4126639;34;19903;-85
2022/08/08 08:17:59;;;;;;;;;;;25.10;63.30;;;24.62;58.52;96519.94;4127022;34;20045;-85
2022/08/08 08:20:30;;;;;;;;;;;25.10;63.30;;;24.61;58.64;96523.91;4129002;34;20143;-84
2022/08/08 08:23:02;;;;;;;;;;;25.10;63.30;;;24.61;58.51;96521.09;4128456;34;19983;-84
2022/08/08 08:25:32;;;;;;;;;;;25.10;63.30;;;24.61;58.51;96519.13;4151469;34;20207;-84
2022/08/08 08:28:01;;;;;;;;;;;25.10;63.40;;;24.62;58.62;96517.13;4128848;34;19911;-85
2022/08/08 08:30:30;;;;;;;;;;;25.10;63.30;;;24.60;58.77;96519.47;4151348;34;19904;-85
2022/08/08 08:32:59;;;;;;;;;;;25.10;63.40;;;24.60;58.65;96525.06;4150894;34;20054;-85
2022/08/08 08:35:28;;;;;;;;;;;25.10;63.40;;;24.60;58.73;96519.47;4129034;34;19907;-85
2022/08/08 08:37:58;;;;;;;;;;;25.10;63.40;;;24.59;58.53;96523.47;4151465;34;19903;-85
2022/08/08 08:40:28;;;;;;;;;;;25.10;63.40;;;24.59;58.87;96515.06;4128867;34;20256;-85
2022/08/08 08:42:57;;;;;;;;;;;25.10;63.50;;;24.58;58.99;96516.22;4150761;34;19903;-84
2022/08/08 08:45:26;;;;;;;;;;;25.10;63.60;;;24.56;59.05;96510.16;4151321;34;19998;-85
2022/08/08 08:47:59;;;;;;;;;;;25.10;63.60;;;24.55;59.14;96508.53;4151303;34;19903;-84
2022/08/08 08:50:29;;;;;;;;;;;25.10;63.60;;;24.52;59.05;96502.47;4151334;34;19915;-84
2022/08/08 08:53:00;;;;;;;;;;;25.10;63.70;;;24.54;59.19;96501.31;4128044;34;19915;-84
2022/08/08 08:55:29;;;;;;;;;;;25.10;63.70;;;24.52;59.23;96513.66;4151060;34;20117;-85
2022/08/08 08:57:57;;;;;;;;;;;25.10;63.70;;;24.50;59.04;96510.41;4128643;34;20129;-84
2022/08/08 09:00:26;;;;;;;;;;;25.00;63.70;;;24.50;59.12;96504.00;4151167;34;19915;-84
2022/08/08 09:02:57;;;;;;;;;;;25.10;63.80;;;24.49;59.25;96497.56;4128112;34;20066;-84
2022/08/08 09:05:26;;;;;;;;;;;25.00;63.80;;;24.49;59.23;96497.56;4128500;34;19938;-85
2022/08/08 09:07:56;;;;;;;;;;;25.00;63.80;;;24.48;59.19;96493.16;4128563;34;20019;-85
2022/08/08 09:10:26;;;;;;;;;;;25.00;63.80;;;24.47;59.24;96488.72;4128464;34;20095;-86
2022/08/08 09:12:55;;;;;;;;;;;25.00;63.90;;;24.48;59.43;96495.94;4150664;34;19911;-86
2022/08/08 09:15:23;;;;;;;;;;;25.00;64.00;;;24.46;59.52;96492.69;4151098;34;19975;-86
2022/08/08 09:17:52;;;;;;;;;;;25.00;64.00;;;24.46;59.12;96481.50;4150944;34;19986;-85
2022/08/08 09:20:23;;;;;;;;;;;25.00;64.00;;;24.46;59.41;96480.69;4150969;34;19904;-85
2022/08/08 09:22:52;;;;;;;;;;;25.00;64.10;;;24.45;59.29;96485.47;4127816;34;19903;-84
2022/08/08 09:25:21;;;;;;;;;;;25.00;64.00;;;24.45;59.37;96479.06;4128299;34;20128;-85
2022/08/08 09:27:51;;;;;;;;;;;25.00;64.10;;;24.44;59.29;96483.84;4128281;34;20073;-85
2022/08/08 09:30:20;;;;;;;;;;;25.00;64.10;;;24.44;59.50;96481.06;4150482;34;20126;-86
2022/08/08 09:32:51;;;;;;;;;;;25.00;64.10;;;24.44;59.79;96475.47;4150228;34;19987;-85
2022/08/08 09:35:24;;;;;;;;;;;25.00;64.20;;;24.44;59.36;96471.81;4128248;34;19985;-86
2022/08/08 09:37:54;;;;;;;;;;;25.00;64.20;;;24.43;59.43;96473.81;4150564;34;19959;-85
2022/08/08 09:40:30;;;;;;;;;;;25.00;64.10;;;24.44;59.38;96478.25;4128187;34;19911;-85
2022/08/08 09:43:07;;;;;;;;;;;25.00;64.20;;;24.43;59.46;96473.00;4127341;34;19904;-85
2022/08/08 09:45:46;;;;;;;;;;;25.00;64.20;;;24.43;59.66;96471.03;4155236;34;19903;-86
2022/08/08 09:48:16;;;;;;;;;;;25.00;64.30;;;24.44;59.47;96469.03;4155400;34;19903;-86
2022/08/08 09:50:46;;;;;;;;;;;25.00;64.20;;;24.43;59.92;96465.44;4178408;34;20038;-85
2022/08/08 09:53:19;;;;;;;;;;;25.00;64.20;;;24.44;59.31;96463.44;4177496;34;19910;-85
2022/08/08 09:55:47;;;;;;;;;;;25.00;64.30;;;24.43;59.53;96454.25;4155187;34;20027;-85
2022/08/08 09:58:19;;;;;;;;;;;25.00;64.10;;;24.43;59.64;96457.03;4155195;34;19903;-86
2022/08/08 10:00:48;;;;;;;;;;;25.00;64.20;;;24.44;59.76;96447.47;4155051;34;19909;-86
2022/08/08 10:03:18;;;;;;;;;;;25.00;64.20;;;24.44;59.45;96443.84;4154596;34;19910;-86
2022/08/08 10:05:46;;;;;;;;;;;25.00;64.20;;;24.43;59.63;96439.41;4152114;34;19910;-86
2022/08/08 10:08:15;;;;;;;;;;;25.00;64.20;;;24.40;59.69;96438.16;4151348;34;20146;-86
2022/08/08 10:10:45;;;;;;;;;;;25.00;64.30;;;24.40;59.65;96443.75;4150454;34;20065;-86
2022/08/08 10:13:20;;;;;;;;;;;25.00;65.20;;;24.41;59.53;96436.16;4149868;34;20018;-85
2022/08/08 10:15:51;;;;;;;;;;;25.00;64.40;;;24.41;59.18;96430.56;4127794;34;19904;-84
2022/08/08 10:18:26;;;;;;;;;;;25.00;64.30;;;24.41;59.65;96433.34;4150327;34;19904;-86
2022/08/08 10:21:01;;;;;;;;;;;25.00;64.30;;;24.38;59.78;96423.69;4150127;34;19904;-85
2022/08/08 10:23:41;;;;;;;;;;;25.00;64.30;;;24.36;59.82;96423.22;4127218;34;20025;-85
2022/08/08 10:26:15;;;;;;;;;;;25.00;64.40;;;24.35;59.92;96418.81;4150247;34;20130;-85
2022/08/08 10:28:56;;;;;;;;;;;24.90;64.40;;;24.36;59.86;96429.66;4150333;34;20135;-86
2022/08/08 10:34:17;;;;;;;;;;;24.90;64.50;;;24.33;59.80;96418.38;4149781;34;19904;-85
2022/08/08 10:36:46;;;;;;;;;;;24.90;64.50;;;24.33;59.96;96421.16;4127445;34;19938;-85
2022/08/08 10:39:19;;;;;;;;;;;24.90;64.60;;;24.31;59.97;96426.31;4150251;34;20108;-86
2022/08/08 10:41:56;;;;;;;;;;;24.90;64.70;;;24.30;59.90;96424.66;4149245;34;20367;-86
2022/08/08 10:44:35;;;;;;;;;;;24.90;64.70;;;24.31;60.00;96431.91;4127075;34;19911;-85
2022/08/08 10:47:11;;;;;;;;;;;24.80;64.60;;;24.29;60.20;96420.25;4150130;34;19982;-85
2022/08/08 10:49:40;;;;;;;;;;;24.80;64.70;;;24.28;60.05;96429.81;4127465;34;20153;-85
2022/08/08 10:52:09;;;;;;;;;;;24.80;64.80;;;24.28;59.85;96421.41;4149407;34;20001;-85
2022/08/08 10:54:38;;;;;;;;;;;24.80;64.80;;;24.27;60.04;96408.59;4127465;34;19903;-85
2022/08/08 10:57:07;;;;;;;;;;;24.80;64.80;;;24.24;59.88;96401.72;4127246;34;20162;-85
2022/08/08 10:59:37;;;;;;;;;;;24.80;64.80;;;24.24;60.12;96407.31;4150116;34;20110;-85
2022/08/08 11:02:06;;;;;;;;;;;24.80;64.90;;;24.24;60.04;96407.31;4149417;34;19903;-84
2022/08/08 11:04:45;;;;;;;;;;;24.80;64.90;;;24.20;59.98;96415.59;4127316;34;19947;-85
2022/08/08 11:07:24;;;;;;;;;;;24.80;64.90;;;24.21;59.95;96414.41;4149857;34;19904;-85
2022/08/08 11:09:53;;;;;;;;;;;24.80;65.00;;;24.20;60.29;96407.19;4127218;34;20052;-84
2022/08/08 11:12:21;;;;;;;;;;;24.80;65.00;;;24.17;60.32;96407.94;4150279;34;20151;-86
2022/08/08 11:14:56;;;;;;;;;;;24.80;65.10;;;24.18;60.21;96415.16;4127315;34;20338;-86
2022/08/08 11:17:26;;;;;;;;;;;24.70;65.10;;;24.16;60.08;96423.09;4149703;34;20471;-86
2022/08/08 11:19:55;;;;;;;;;;;24.70;65.20;;;24.15;60.34;96424.25;4149757;34;19911;-85
2022/08/08 11:22:28;;;;;;;;;;;24.70;65.20;;;24.14;60.40;96425.41;4149449;34;19912;-85
2022/08/08 11:25:00;;;;;;;;;;;24.70;65.30;;;24.15;60.38;96429.00;4127247;34;20161;-86
2022/08/08 11:27:32;;;;;;;;;;;24.70;65.30;;;24.13;60.50;96423.78;4149414;34;19904;-85
2022/08/08 11:30:04;;;;;;;;;;;24.70;65.30;;;24.14;60.36;96416.22;4126865;34;19903;-85
2022/08/08 11:32:35;;;;;;;;;;;24.70;65.40;;;24.12;60.29;96419.34;4148995;34;20131;-85
2022/08/08 11:35:07;;;;;;;;;;;24.70;65.40;;;24.12;60.76;96413.75;4149711;34;20095;-85
2022/08/08 11:37:37;;;;;;;;;;;24.60;65.30;;;24.11;60.40;96406.53;4149371;34;20100;-86
2022/08/08 11:40:07;;;;;;;;;;;24.70;65.60;;;24.11;60.78;96409.34;4149643;34;20160;-85
2022/08/08 11:42:36;;;;;;;;;;;24.70;66.50;;;24.12;60.83;96404.56;4126278;34;19945;-86
2022/08/08 11:45:07;;;;;;;;;;;24.70;65.60;;;24.11;60.71;96409.34;4126802;34;19911;-86
2022/08/08 11:47:37;;;;;;;;;;;24.70;65.60;;;24.12;60.57;96415.75;4149599;34;20129;-85
2022/08/08 11:50:07;;;;;;;;;;;24.60;65.60;;;24.10;60.84;96416.09;4149472;34;19939;-85
2022/08/08 11:52:36;;;;;;;;;;;24.60;65.60;;;24.10;60.65;96413.28;4129725;34;20131;-84
2022/08/08 11:55:16;;;;;;;;;;;24.70;65.80;;;24.11;60.58;96422.53;4156374;34;20466;-84
2022/08/08 11:57:45;;;;;;;;;;;24.70;65.70;;;24.12;60.66;96421.34;4156454;34;19903;-84
2022/08/08 12:00:18;;;;;;;;;;;24.70;65.80;;;24.12;60.50;96415.75;4179311;34;20187;-85
2022/08/08 12:02:53;;;;;;;;;;;24.60;65.60;;;24.11;60.81;96414.94;4178907;33;20219;-84
2022/08/08 12:05:31;;;;;;;;;;;24.70;65.70;;;24.12;60.50;96418.56;4179311;34;20293;-85
2022/08/08 12:08:00;;;;;;;;;;;24.60;65.60;;;24.13;60.72;96409.00;4156295;34;19910;-85